Time;durP1;ratioP1;P1;durP2;ratioP2;P2;SDS_P1;SDS_P2;PMS_P1;PMS_P2;Temp;Humidity;BMP_temperature;BMP_pressure;BME280_temperature;BME280_humidity;BME280_pressure;Samples;Min_cycle;Max_cycle;Signal;HPM_P1;HPM_P2
2023/08/21 00:02:05;;;;;;;8.00;7.30;;;;;;;25.94;79.43;158045.66;5062489;28;20461;-87
2023/08/21 00:04:32;;;;;;;8.40;7.60;;;;;;;25.88;79.15;158029.94;5033922;28;20478;-86
2023/08/21 00:06:58;;;;;;;8.77;7.97;;;;;;;25.87;79.77;158026.00;5049113;28;20439;-86
2023/08/21 00:09:25;;;;;;;10.70;8.30;;;;;;;25.86;80.01;158024.72;5067811;28;20544;-86
2023/08/21 00:11:51;;;;;;;8.67;7.87;;;;;;;25.85;79.59;158022.09;5033206;28;20450;-86
2023/08/21 00:14:18;;;;;;;9.07;8.20;;;;;;;25.86;79.05;158023.41;5043821;28;20944;-86
2023/08/21 00:16:46;;;;;;;7.73;6.93;;;;;;;25.91;78.42;158036.50;5058572;28;20447;-86
2023/08/21 00:19:12;;;;;;;8.97;8.07;;;;;;;25.83;80.42;158016.88;5046869;28;21043;-86
2023/08/21 00:21:39;;;;;;;7.90;7.20;;;;;;;25.79;80.30;158006.38;5060733;28;20465;-87
2023/08/21 00:24:06;;;;;;;8.83;8.00;;;;;;;25.76;79.67;157998.50;5046760;28;20489;-87
2023/08/21 00:26:32;;;;;;;7.93;7.20;;;;;;;25.74;80.36;157993.28;5060148;28;20453;-86
2023/08/21 00:28:59;;;;;;;8.37;7.57;;;;;;;25.72;79.80;157986.72;5044811;28;20496;-86
2023/08/21 00:31:26;;;;;;;8.20;7.40;;;;;;;25.74;81.00;157991.97;5051063;28;20864;-86
2023/08/21 00:33:54;;;;;;;8.70;7.60;;;;;;;25.73;81.55;157990.69;5047550;28;20466;-87
2023/08/21 00:36:20;;;;;;;8.47;7.60;;;;;;;25.73;81.38;157989.38;5047571;28;20445;-86
2023/08/21 00:38:47;;;;;;;9.07;7.70;;;;;;;25.72;81.53;157986.72;5040753;28;20512;-86
2023/08/21 00:41:14;;;;;;;7.63;6.93;;;;;;;25.70;81.25;157981.50;5029520;28;20995;-86
2023/08/21 00:43:40;;;;;;;8.07;7.27;;;;;;;25.68;81.01;157976.28;5050111;28;20454;-87
2023/08/21 00:46:07;;;;;;;8.10;7.30;;;;;;;25.67;81.67;157973.66;5049280;28;20443;-86
2023/08/21 00:48:34;;;;;;;8.63;7.90;;;;;;;25.62;81.82;157960.56;5023066;28;20513;-86
2023/08/21 00:51:03;;;;;;;9.50;8.53;;;;;;;25.59;81.65;157954.03;5039975;28;20464;-86
2023/08/21 00:53:30;;;;;;;8.30;7.23;;;;;;;25.57;80.96;157947.47;5072990;28;20476;-86
2023/08/21 00:55:56;;;;;;;8.73;7.90;;;;;;;25.56;80.72;157946.16;5047400;28;20449;-86
2023/08/21 00:58:24;;;;;;;8.33;7.53;;;;;;;25.55;81.52;157942.25;5029699;28;20463;-87
2023/08/21 01:00:52;;;;;;;7.80;7.00;;;;;;;25.52;81.23;157934.41;5083478;28;20472;-86
2023/08/21 01:03:19;;;;;;;7.57;6.77;;;;;;;25.49;81.22;157926.53;5033461;28;20446;-86
2023/08/21 01:05:46;;;;;;;8.57;7.77;;;;;;;25.44;81.33;157916.00;5077307;28;20477;-86
2023/08/21 01:08:18;;;;;;;7.47;6.80;;;;;;;25.40;81.11;157905.53;5035130;28;20516;-86
2023/08/21 01:10:52;;;;;;;9.40;7.33;;;;;;;25.35;81.22;157892.47;5049640;28;20458;-86
2023/08/21 01:13:35;;;;;;;8.07;7.37;;;;;;;25.33;81.34;157887.22;5049562;28;20448;-86
2023/08/21 01:16:02;;;;;;;7.53;6.83;;;;;;;25.31;81.60;157881.97;5060976;28;20414;-86
2023/08/21 01:18:29;;;;;;;8.73;6.90;;;;;;;25.30;82.88;157879.38;5048801;28;20472;-86
2023/08/21 01:20:58;;;;;;;8.27;7.57;;;;;;;25.27;82.87;157871.53;5083471;28;20436;-86
2023/08/21 01:23:32;;;;;;;8.97;7.97;;;;;;;25.24;82.37;157863.66;5034947;28;20465;-86
2023/08/21 01:25:59;;;;;;;8.33;7.57;;;;;;;25.21;82.02;157855.81;5037545;28;20984;-86
2023/08/21 01:28:25;;;;;;;8.23;7.43;;;;;;;25.16;82.60;157842.72;5029343;28;20457;-86
2023/08/21 01:30:56;;;;;;;8.17;7.30;;;;;;;25.12;82.50;157830.97;5037305;28;20458;-86
2023/08/21 01:33:23;;;;;;;8.40;7.50;;;;;;;25.13;83.79;157834.84;5081692;28;20458;-86
2023/08/21 01:35:50;;;;;;;8.30;7.37;;;;;;;25.12;83.02;157830.97;5030542;28;20481;-86
2023/08/21 01:38:17;;;;;;;8.47;7.57;;;;;;;25.09;82.93;157823.09;5059206;28;20465;-86
2023/08/21 01:40:47;;;;;;;8.33;7.60;;;;;;;25.09;84.91;157824.41;5083911;28;20560;-86
2023/08/21 01:43:14;;;;;;;9.20;8.37;;;;;;;25.05;84.01;157813.91;5062197;28;20471;-86
2023/08/21 01:45:41;;;;;;;8.30;7.50;;;;;;;25.07;84.09;157817.88;5087661;28;20808;-86
2023/08/21 01:48:07;;;;;;;8.10;7.30;;;;;;;25.07;83.52;157819.16;5061725;28;20468;-86
2023/08/21 01:50:34;;;;;;;8.60;7.80;;;;;;;25.04;83.23;157811.34;5079329;28;20456;-86
2023/08/21 01:53:00;;;;;;;8.80;8.00;;;;;;;25.02;84.02;157804.78;5053278;28;20489;-86
2023/08/21 01:55:28;;;;;;;8.37;7.57;;;;;;;24.95;84.22;157786.44;5049052;28;20438;-86
2023/08/21 01:57:55;;;;;;;8.83;8.03;;;;;;;24.86;84.45;157762.94;5067477;28;20558;-86
2023/08/21 02:00:22;;;;;;;9.50;8.70;;;;;;;24.78;85.17;157743.25;5048625;28;20436;-86
2023/08/21 02:02:49;;;;;;;9.10;7.60;;;;;;;24.73;85.54;157730.13;5052008;28;20895;-86
2023/08/21 02:05:15;;;;;;;9.30;8.50;;;;;;;24.66;85.21;157713.16;5081247;28;20468;-86
2023/08/21 02:07:42;;;;;;;8.20;7.40;;;;;;;24.61;85.35;157698.75;5056617;28;20445;-86
2023/08/21 02:10:09;;;;;;;8.27;7.47;;;;;;;24.56;86.74;157685.69;5084523;28;20985;-86
2023/08/21 02:12:36;;;;;;;8.30;7.60;;;;;;;24.52;86.59;157675.19;5036755;28;20966;-86
2023/08/21 02:15:05;;;;;;;10.27;7.57;;;;;;;24.48;86.66;157664.75;5086842;28;20962;-86
2023/08/21 02:17:33;;;;;;;7.77;6.97;;;;;;;24.46;87.40;157660.84;5038763;28;20503;-86
2023/08/21 02:19:59;;;;;;;7.87;7.10;;;;;;;24.43;87.08;157651.69;5050739;28;23618;-86
2023/08/21 02:22:26;;;;;;;7.97;7.17;;;;;;;24.40;86.94;157643.81;5081464;28;20465;-86
2023/08/21 02:24:52;;;;;;;9.27;8.00;;;;;;;24.38;87.58;157638.59;5091831;28;20491;-86
2023/08/21 02:27:19;;;;;;;8.47;7.67;;;;;;;24.33;87.20;157626.78;5056360;28;20443;-86
2023/08/21 02:29:45;;;;;;;8.30;7.57;;;;;;;24.31;87.78;157620.25;5061758;28;20458;-86
2023/08/21 02:32:13;;;;;;;8.23;7.43;;;;;;;24.27;88.18;157611.13;5090843;28;20451;-86
2023/08/21 02:34:40;;;;;;;7.50;6.80;;;;;;;24.22;88.18;157599.31;5073077;28;20453;-86
2023/08/21 02:37:07;;;;;;;9.27;8.30;;;;;;;24.23;88.50;157600.66;5076114;28;20527;-86
2023/08/21 02:39:34;;;;;;;8.10;7.30;;;;;;;24.20;88.54;157594.09;5071842;28;20454;-86
2023/08/21 02:42:01;;;;;;;8.40;7.67;;;;;;;24.16;88.79;157582.34;5058163;28;20466;-86
2023/08/21 02:44:27;;;;;;;8.47;7.67;;;;;;;24.12;88.65;157573.19;5043237;28;20477;-85
2023/08/21 02:46:54;;;;;;;8.37;7.60;;;;;;;24.09;89.90;157564.06;5055689;28;20516;-85
2023/08/21 02:49:22;;;;;;;9.10;8.20;;;;;;;24.05;90.25;157554.84;5063543;28;20452;-86
2023/08/21 02:51:48;;;;;;;8.17;7.47;;;;;;;24.04;90.98;157550.94;5072278;28;20808;-86
2023/08/21 02:54:15;;;;;;;9.23;8.43;;;;;;;24.03;91.10;157548.31;5064534;28;20453;-86
2023/08/21 02:56:41;;;;;;;8.47;7.67;;;;;;;24.00;91.20;157540.47;5033860;28;20468;-86
2023/08/21 02:59:08;;;;;;;9.50;8.03;;;;;;;23.99;91.65;157539.13;5063173;28;20457;-86
2023/08/21 03:01:35;;;;;;;12.67;8.40;;;;;;;23.97;91.88;157532.59;5052388;28;20445;-85
2023/08/21 03:04:01;;;;;;;9.57;8.27;;;;;;;23.91;91.80;157518.22;5032718;28;20462;-86
2023/08/21 03:06:29;;;;;;;8.37;7.57;;;;;;;23.87;91.56;157507.78;5069748;28;20493;-86
2023/08/21 03:08:56;;;;;;;9.70;8.70;;;;;;;23.87;92.18;157507.78;5085466;28;20970;-86
2023/08/21 03:11:24;;;;;;;8.90;8.00;;;;;;;23.84;92.34;157499.94;5052776;28;20453;-85
2023/08/21 03:13:52;;;;;;;8.73;7.93;;;;;;;23.80;92.58;157489.44;5055481;28;20455;-86
2023/08/21 03:16:18;;;;;;;9.87;8.97;;;;;;;23.77;92.97;157481.66;5062315;28;20556;-86
2023/08/21 03:19:03;;;;;;;9.97;9.07;;;;;;;23.73;93.73;157471.16;5048426;28;20993;-86
2023/08/21 03:21:32;;;;;;;9.67;8.73;;;;;;;23.71;93.74;157465.94;5069461;28;20447;-86
2023/08/21 03:24:00;;;;;;;10.83;9.67;;;;;;;23.71;93.78;157464.63;5065110;28;20469;-85
2023/08/21 03:26:27;;;;;;;10.30;9.10;;;;;;;23.72;94.05;157467.25;5067962;28;20590;-86
2023/08/21 03:28:55;;;;;;;9.83;8.90;;;;;;;23.69;93.74;157460.72;5034791;28;20973;-86
2023/08/21 03:31:21;;;;;;;9.47;8.57;;;;;;;23.65;93.95;157450.25;5067852;28;20952;-87
2023/08/21 03:33:48;;;;;;;10.10;8.90;;;;;;;23.68;94.68;157458.09;5073817;28;20539;-86
2023/08/21 03:36:17;;;;;;;9.93;9.03;;;;;;;23.63;93.82;157445.03;5050804;28;20433;-86
2023/08/21 03:38:45;;;;;;;9.53;8.53;;;;;;;23.60;93.73;157437.16;5059741;28;20546;-86
2023/08/21 03:41:12;;;;;;;8.73;7.93;;;;;;;23.58;94.59;157431.97;5054969;28;20808;-85
2023/08/21 03:43:39;;;;;;;11.33;8.73;;;;;;;23.58;94.05;157431.97;5037941;28;20552;-85
2023/08/21 03:46:06;;;;;;;8.63;7.80;;;;;;;23.66;94.54;157452.88;5056717;28;20469;-79
2023/08/21 03:48:32;;;;;;;10.87;8.80;;;;;;;23.71;92.96;157465.94;5060401;28;20445;-78
2023/08/21 03:50:59;;;;;;;10.93;8.57;;;;;;;23.74;92.95;157473.78;5045200;28;20462;-79
2023/08/21 03:53:25;;;;;;;8.50;7.70;;;;;;;23.80;92.83;157489.44;5050866;28;20488;-78
2023/08/21 03:55:53;;;;;;;10.00;8.50;;;;;;;23.84;92.30;157499.94;5048934;28;20442;-78
2023/08/21 03:58:20;;;;;;;8.93;8.07;;;;;;;23.87;92.06;157506.47;5031339;28;20454;-78
2023/08/21 04:00:46;;;;;;;9.10;7.60;;;;;;;23.89;92.59;157513.00;5066183;28;20449;-78
2023/08/21 04:03:13;;;;;;;10.40;8.00;;;;;;;23.87;91.47;157507.78;5068492;28;20445;-78
2023/08/21 04:05:39;;;;;;;9.73;7.80;;;;;;;23.78;91.71;157484.22;5065018;28;20895;-78
2023/08/21 04:08:06;;;;;;;8.60;7.80;;;;;;;23.76;92.65;157479.00;5067791;28;20450;-78
2023/08/21 04:10:32;;;;;;;9.67;8.20;;;;;;;23.78;92.53;157484.22;5063053;28;20453;-78
2023/08/21 04:13:00;;;;;;;9.60;8.70;;;;;;;23.73;92.13;157469.84;5077054;28;20465;-78
2023/08/21 04:15:27;;;;;;;9.27;8.30;;;;;;;23.72;92.46;157468.56;5050426;28;20445;-78
2023/08/21 04:17:54;;;;;;;9.43;8.43;;;;;;;23.73;92.76;157471.16;5079521;28;20896;-78
2023/08/21 04:20:21;;;;;;;9.70;8.80;;;;;;;23.73;92.74;157471.16;5047224;28;20464;-78
2023/08/21 04:22:50;;;;;;;9.97;8.87;;;;;;;23.68;92.41;157458.09;5050512;28;20430;-78
2023/08/21 04:25:17;;;;;;;8.40;7.60;;;;;;;23.67;92.73;157455.47;5077307;28;20461;-79
2023/08/21 04:27:44;;;;;;;9.40;8.53;;;;;;;23.64;92.34;157448.91;5041179;28;20462;-79
2023/08/21 04:30:13;;;;;;;9.60;8.70;;;;;;;23.65;92.88;157450.25;5031088;28;20485;-79
2023/08/21 04:32:42;;;;;;;9.40;8.60;;;;;;;23.66;93.28;157451.56;5034887;28;20469;-79
2023/08/21 04:35:09;;;;;;;9.70;8.80;;;;;;;23.67;92.62;157455.47;5067007;28;20450;-79
2023/08/21 04:37:38;;;;;;;13.07;8.70;;;;;;;23.67;92.63;157455.47;5031468;28;20693;-79
2023/08/21 04:40:07;;;;;;;10.47;7.37;;;;;;;23.67;92.82;157454.19;5059062;28;20460;-78
2023/08/21 04:42:34;;;;;;;9.17;8.23;;;;;;;23.64;92.60;157448.91;5035433;28;20581;-79
2023/08/21 04:45:02;;;;;;;9.73;7.97;;;;;;;23.56;92.64;157428.00;5041721;28;20545;-78
2023/08/21 04:47:33;;;;;;;8.60;7.80;;;;;;;23.55;93.42;157424.09;5079834;28;20458;-79
2023/08/21 04:50:00;;;;;;;10.17;9.13;;;;;;;23.53;94.29;157418.88;5019973;28;20454;-78
2023/08/21 04:52:29;;;;;;;10.57;9.60;;;;;;;23.55;94.35;157424.09;5068441;28;20832;-79
2023/08/21 04:54:56;;;;;;;9.57;8.57;;;;;;;23.56;93.63;157426.75;5027789;28;20489;-79
2023/08/21 04:57:23;;;;;;;10.90;8.27;;;;;;;23.59;93.28;157434.53;5060069;28;20549;-79
2023/08/21 04:59:52;;;;;;;10.37;9.30;;;;;;;23.60;93.13;157437.16;5038803;28;20442;-79
2023/08/21 05:02:21;;;;;;;10.80;8.30;;;;;;;23.66;93.09;157452.88;5030916;28;20461;-79
2023/08/21 05:04:51;;;;;;;9.67;8.67;;;;;;;23.68;93.54;157456.78;5049688;28;20438;-79
2023/08/21 05:07:17;;;;;;;9.90;9.00;;;;;;;23.63;93.77;157446.34;5067876;28;20585;-79
2023/08/21 05:09:44;;;;;;;9.57;8.67;;;;;;;23.65;93.73;157450.25;5090117;28;20449;-79
2023/08/21 05:12:12;;;;;;;9.80;8.03;;;;;;;23.69;93.94;157459.41;5045507;28;20448;-79
2023/08/21 05:14:39;;;;;;;9.37;8.47;;;;;;;23.67;93.28;157454.19;5028960;28;20514;-79
2023/08/21 05:17:06;;;;;;;9.40;8.60;;;;;;;23.68;94.13;157456.78;5053522;28;20572;-79
2023/08/21 05:19:32;;;;;;;9.40;8.50;;;;;;;23.72;94.08;157468.56;5058009;28;20445;-78
2023/08/21 05:22:01;;;;;;;9.10;8.40;;;;;;;23.78;93.80;157482.91;5015567;28;21444;-78
2023/08/21 05:24:29;;;;;;;9.33;8.43;;;;;;;23.78;93.48;157482.91;5012874;28;20858;-79
2023/08/21 05:27:01;;;;;;;8.97;8.17;;;;;;;23.81;93.54;157492.06;5038826;28;20473;-78
2023/08/21 05:29:28;;;;;;;8.97;7.53;;;;;;;23.93;93.56;157522.16;5059839;28;20453;-79
2023/08/21 05:31:57;;;;;;;8.97;8.10;;;;;;;24.12;92.25;157573.19;5017950;28;20466;-78
2023/08/21 05:34:25;;;;;;;8.70;7.70;;;;;;;24.37;91.59;157635.97;5068295;28;20446;-78
2023/08/21 05:36:54;;;;;;;9.40;8.50;;;;;;;24.57;90.13;157688.31;5020065;28;20464;-85
2023/08/21 05:39:22;;;;;;;8.47;7.60;;;;;;;24.78;88.63;157743.25;5044863;28;20450;-86
2023/08/21 05:41:50;;;;;;;9.33;8.33;;;;;;;24.99;87.76;157798.25;5065530;28;20838;-86
2023/08/21 05:44:16;;;;;;;8.10;7.40;;;;;;;25.15;85.77;157840.09;5076620;28;20457;-86
2023/08/21 05:46:43;;;;;;;8.07;7.27;;;;;;;25.30;84.38;157879.38;5045639;28;20479;-86
2023/08/21 05:49:10;;;;;;;8.10;7.40;;;;;;;25.45;83.97;157917.31;5065379;28;20456;-86
2023/08/21 05:51:36;;;;;;;8.90;7.60;;;;;;;25.56;83.25;157944.84;5026690;28;20453;-86
2023/08/21 05:54:03;;;;;;;8.30;7.50;;;;;;;25.71;82.13;157984.09;5033646;28;20477;-86
2023/08/21 05:56:31;;;;;;;7.50;6.80;;;;;;;25.91;80.72;158036.50;5070067;28;20450;-86
2023/08/21 05:58:58;;;;;;;7.70;6.93;;;;;;;26.05;79.21;158073.16;5031321;28;20484;-86
2023/08/21 06:01:25;;;;;;;9.40;7.10;;;;;;;26.22;79.04;158117.72;5035341;28;20992;-87
2023/08/21 06:03:52;;;;;;;7.90;7.20;;;;;;;26.40;77.62;158163.53;5058636;28;20569;-87
2023/08/21 06:06:30;;;;;;;7.93;7.13;;;;;;;26.49;77.95;158188.44;5085216;28;20947;-87
2023/08/21 06:08:56;;;;;;;8.20;7.47;;;;;;;26.66;78.45;158231.69;5033949;28;20472;-87
2023/08/21 06:11:23;;;;;;;8.00;7.20;;;;;;;26.79;78.07;158264.47;5083198;28;20452;-87
2023/08/21 06:13:51;;;;;;;8.70;7.90;;;;;;;26.95;77.61;158306.38;5029480;28;20458;-86
2023/08/21 06:16:17;;;;;;;8.30;7.50;;;;;;;27.12;76.90;158352.22;5050470;28;20553;-87
2023/08/21 06:18:45;;;;;;;9.07;8.17;;;;;;;27.28;76.29;158392.84;5065770;28;20464;-87
2023/08/21 06:21:12;;;;;;;8.43;7.60;;;;;;;27.35;75.24;158409.91;5058373;28;20445;-86
2023/08/21 06:23:39;;;;;;;8.30;7.60;;;;;;;27.47;75.18;158442.69;5081838;28;20462;-87
2023/08/21 06:26:05;;;;;;;9.50;8.60;;;;;;;27.59;73.97;158472.81;5039088;28;20901;-87
2023/08/21 06:28:32;;;;;;;8.40;7.70;;;;;;;27.70;73.54;158502.97;5048505;28;21168;-87
2023/08/21 06:31:03;;;;;;;8.60;7.77;;;;;;;27.79;72.58;158526.59;5073279;28;20458;-87
2023/08/21 06:33:30;;;;;;;8.03;7.33;;;;;;;27.87;72.77;158546.25;5061648;28;20870;-86
2023/08/21 06:35:57;;;;;;;7.40;6.80;;;;;;;28.00;72.39;158580.31;5051968;28;20481;-87
2023/08/21 06:38:23;;;;;;;8.73;7.40;;;;;;;28.18;72.10;158626.22;5086213;28;20889;-86
2023/08/21 06:40:50;;;;;;;9.20;8.33;;;;;;;28.20;71.38;158631.47;5028121;28;20462;-86
2023/08/21 06:43:17;;;;;;;8.70;8.00;;;;;;;28.18;72.35;158626.22;5051516;28;20449;-87
2023/08/21 06:45:47;;;;;;;9.70;7.60;;;;;;;28.31;71.14;158660.31;5019929;28;20472;-86
2023/08/21 06:48:15;;;;;;;8.27;7.20;;;;;;;28.49;70.58;158707.53;5052627;28;20461;-87
2023/08/21 06:50:42;;;;;;;9.20;8.33;;;;;;;28.66;69.59;158752.19;5082641;28;20470;-87
2023/08/21 06:53:08;;;;;;;8.70;7.77;;;;;;;28.72;69.89;158766.59;5084813;28;20470;-86
2023/08/21 06:55:35;;;;;;;8.73;7.83;;;;;;;28.73;69.08;158770.53;5047525;28;21036;-87
2023/08/21 06:58:01;;;;;;;8.67;7.87;;;;;;;28.73;69.12;158770.53;5063048;28;20827;-87
2023/08/21 07:00:28;;;;;;;10.20;9.20;;;;;;;28.78;69.06;158783.63;5083474;28;20461;-87
2023/08/21 07:02:54;;;;;;;8.10;7.30;;;;;;;28.96;68.97;158829.56;5065717;28;20480;-87
2023/08/21 07:05:22;;;;;;;8.40;7.70;;;;;;;29.03;68.81;158846.59;5082529;28;20454;-87
2023/08/21 07:07:49;;;;;;;9.10;8.23;;;;;;;29.17;68.39;158884.66;5068285;28;20507;-87
2023/08/21 07:10:16;;;;;;;7.93;7.23;;;;;;;29.36;68.03;158933.25;5087780;28;20519;-87
2023/08/21 07:12:42;;;;;;;8.67;7.87;;;;;;;29.62;67.96;159001.50;5076630;28;20453;-87
2023/08/21 07:15:10;;;;;;;8.27;7.47;;;;;;;29.67;68.01;159013.28;5035706;28;20457;-87
2023/08/21 07:17:37;;;;;;;9.60;8.10;;;;;;;29.78;67.19;159042.16;5089606;28;20534;-86
2023/08/21 07:20:05;;;;;;;9.17;8.33;;;;;;;29.84;67.00;159059.25;5090243;28;20703;-87
2023/08/21 07:22:33;;;;;;;9.03;8.20;;;;;;;29.89;66.89;159071.09;5028839;28;20461;-88
2023/08/21 07:25:03;;;;;;;9.13;8.27;;;;;;;29.94;66.06;159085.53;5078949;28;20454;-87
2023/08/21 07:27:30;;;;;;;9.30;8.30;;;;;;;29.99;65.79;159098.66;5087914;28;21094;-87
2023/08/21 07:29:57;;;;;;;8.40;7.70;;;;;;;29.94;65.72;159085.53;5088184;28;20969;-87
2023/08/21 07:32:23;;;;;;;9.27;8.00;;;;;;;30.02;65.69;159105.22;5091069;28;20449;-87
2023/08/21 07:34:53;;;;;;;9.63;8.90;;;;;;;30.22;64.31;159157.69;5071651;28;20983;-87
2023/08/21 07:37:19;;;;;;;8.77;7.90;;;;;;;30.31;64.47;159181.34;5073018;28;20862;-88
2023/08/21 07:39:47;;;;;;;8.90;7.93;;;;;;;30.32;64.33;159182.63;5092239;28;20449;-88
2023/08/21 07:42:14;;;;;;;9.30;8.50;;;;;;;30.43;63.78;159211.56;5040342;28;20453;-88
2023/08/21 07:44:48;;;;;;;9.00;8.10;;;;;;;30.46;64.21;159219.44;5087696;28;20473;-88
2023/08/21 07:47:14;;;;;;;9.73;8.50;;;;;;;30.56;64.13;159245.69;5029278;28;21035;-88
2023/08/21 07:49:41;;;;;;;9.40;8.63;;;;;;;30.71;63.71;159285.13;5090587;28;20452;-88
2023/08/21 07:52:08;;;;;;;9.47;8.57;;;;;;;30.98;63.27;159356.06;5054450;28;20911;-88
2023/08/21 07:54:34;;;;;;;9.80;8.80;;;;;;;31.04;63.08;159371.81;5051140;28;20459;-87
2023/08/21 07:57:03;;;;;;;9.43;8.63;;;;;;;31.11;62.26;159390.19;5084758;28;20457;-88
2023/08/21 07:59:30;;;;;;;9.53;8.83;;;;;;;31.09;62.56;159384.94;5091031;28;20461;-88
2023/08/21 08:01:57;;;;;;;9.97;9.07;;;;;;;31.41;63.33;159466.38;5024617;28;20797;-88
2023/08/21 08:04:23;;;;;;;9.70;8.83;;;;;;;31.64;62.26;159526.91;5089970;28;20970;-88
2023/08/21 08:06:50;;;;;;;10.20;9.30;;;;;;;31.75;61.49;159557.09;5090061;28;20477;-88
2023/08/21 08:09:17;;;;;;;9.93;9.10;;;;;;;31.91;61.36;159597.81;5075214;28;20559;-88
2023/08/21 08:11:43;;;;;;;9.80;8.90;;;;;;;31.93;60.81;159603.09;5086059;28;20978;-88
2023/08/21 08:14:11;;;;;;;10.83;9.80;;;;;;;31.80;61.43;159568.91;5087238;28;20453;-88
2023/08/21 08:16:38;;;;;;;9.83;9.03;;;;;;;31.82;60.84;159575.50;5090625;28;20460;-88
2023/08/21 08:19:04;;;;;;;9.77;8.97;;;;;;;31.89;61.21;159592.56;5075876;28;20827;-88
2023/08/21 08:21:31;;;;;;;9.47;8.70;;;;;;;32.01;60.59;159622.84;5088672;28;20563;-88
2023/08/21 08:23:58;;;;;;;11.03;9.93;;;;;;;32.14;60.00;159657.03;5073511;28;20453;-88
2023/08/21 08:26:24;;;;;;;10.73;9.83;;;;;;;32.28;58.85;159695.13;5072049;28;20589;-88
2023/08/21 08:28:51;;;;;;;10.47;9.57;;;;;;;32.19;58.99;159671.47;5071087;28;20453;-88
2023/08/21 08:31:19;;;;;;;11.80;10.80;;;;;;;31.98;60.00;159616.25;5037143;28;20459;-88
2023/08/21 08:33:46;;;;;;;11.17;10.17;;;;;;;32.12;59.12;159651.72;5042425;28;20891;-88
2023/08/21 08:36:12;;;;;;;12.30;11.03;;;;;;;32.19;58.75;159670.16;5073119;28;20460;-88
2023/08/21 08:38:39;;;;;;;10.47;9.53;;;;;;;32.10;58.48;159646.47;5045395;28;20501;-89
2023/08/21 08:41:10;;;;;;;12.33;11.13;;;;;;;32.20;58.50;159674.09;5070249;28;20538;-89
2023/08/21 08:43:40;;;;;;;11.43;10.33;;;;;;;32.26;58.64;159688.53;5089123;28;20999;-88
2023/08/21 08:46:08;;;;;;;11.67;10.10;;;;;;;32.36;57.41;159716.13;5070127;28;20478;-89
2023/08/21 08:48:36;;;;;;;10.77;9.70;;;;;;;32.33;57.92;159708.25;5022108;28;20446;-88
2023/08/21 08:51:04;;;;;;;11.73;10.33;;;;;;;32.47;57.19;159743.75;5072266;28;20461;-88
2023/08/21 08:53:31;;;;;;;10.43;9.53;;;;;;;32.36;56.73;159716.13;5088329;28;20560;-89
2023/08/21 08:55:58;;;;;;;10.53;9.63;;;;;;;32.33;56.22;159708.25;5089895;28;20797;-89
2023/08/21 08:58:24;;;;;;;14.10;10.80;;;;;;;32.08;57.13;159641.25;5082460;28;20439;-89
2023/08/21 09:00:51;;;;;;;11.97;10.73;;;;;;;31.74;58.40;159553.16;5054832;28;20461;-90
2023/08/21 09:03:17;;;;;;;11.57;10.47;;;;;;;31.65;58.67;159529.50;5059402;28;20446;-89
2023/08/21 09:05:45;;;;;;;11.53;10.17;;;;;;;31.61;58.70;159519.00;5036076;28;20453;-90
2023/08/21 09:08:13;;;;;;;10.77;9.73;;;;;;;31.34;59.00;159450.66;5056281;28;21082;-90
2023/08/21 09:10:41;;;;;;;11.00;10.00;;;;;;;31.41;59.18;159466.38;5022715;28;20496;-89
2023/08/21 09:13:13;;;;;;;11.70;10.50;;;;;;;31.49;59.04;159487.44;5057509;28;20469;-90
2023/08/21 09:15:42;;;;;;;10.63;9.53;;;;;;;31.57;58.57;159508.47;5069044;28;20454;-90
2023/08/21 09:18:10;;;;;;;11.40;10.23;;;;;;;31.58;58.51;159511.13;5020049;28;20448;-90
2023/08/21 09:20:37;;;;;;;10.47;9.57;;;;;;;31.59;57.54;159513.72;5055927;28;20554;-90
2023/08/21 09:23:06;;;;;;;10.27;9.27;;;;;;;31.52;58.31;159495.34;5073639;28;20977;-90
2023/08/21 09:25:36;;;;;;;10.40;9.47;;;;;;;31.46;57.69;159479.56;5019140;28;20528;-89
2023/08/21 09:28:06;;;;;;;9.67;8.87;;;;;;;31.52;56.72;159496.66;5087127;28;20480;-89
2023/08/21 09:30:44;;;;;;;9.83;8.63;;;;;;;31.55;56.86;159503.22;5072595;28;20450;-89
2023/08/21 09:33:11;;;;;;;9.73;8.83;;;;;;;31.45;56.54;159476.91;5071832;28;20539;-89
2023/08/21 09:35:37;;;;;;;10.10;9.00;;;;;;;31.50;56.49;159491.41;5085572;28;20961;-89
2023/08/21 09:38:06;;;;;;;9.23;8.40;;;;;;;31.51;54.32;159492.75;5056405;28;20448;-89
2023/08/21 09:40:33;;;;;;;7.83;7.23;;;;;;;31.27;55.72;159432.22;5056355;28;20483;-89
2023/08/21 09:43:00;;;;;;;7.87;7.27;;;;;;;31.19;53.33;159411.22;5086505;28;20491;-89
2023/08/21 09:45:28;;;;;;;8.83;8.03;;;;;;;30.92;54.50;159340.31;5071048;28;20461;-90
2023/08/21 09:47:55;;;;;;;8.60;7.80;;;;;;;30.72;56.19;159287.72;5039116;28;20473;-88
2023/08/21 09:50:22;;;;;;;9.80;8.10;;;;;;;30.76;56.38;159298.25;5058511;28;20657;-89
2023/08/21 09:52:50;;;;;;;9.80;9.00;;;;;;;30.72;57.43;159287.72;5085832;28;20482;-90
2023/08/21 09:55:18;;;;;;;9.20;8.33;;;;;;;30.97;57.78;159352.13;5092030;28;20528;-89
2023/08/21 09:57:46;;;;;;;10.10;8.27;;;;;;;30.70;56.20;159282.47;5057705;28;20469;-89
2023/08/21 10:00:15;;;;;;;8.87;7.97;;;;;;;30.44;57.43;159215.53;5090686;28;20451;-89
2023/08/21 10:02:45;;;;;;;7.73;7.13;;;;;;;30.39;57.17;159201.09;5073594;28;20456;-90
2023/08/21 10:05:13;;;;;;;9.60;8.80;;;;;;;30.34;57.56;159187.91;5089321;28;20442;-88
2023/08/21 10:07:39;;;;;;;10.27;8.77;;;;;;;30.46;57.67;159220.78;5057866;28;20477;-89
2023/08/21 10:10:07;;;;;;;9.20;8.30;;;;;;;30.45;57.26;159218.13;5090207;28;20453;-89
2023/08/21 10:12:35;;;;;;;11.00;8.13;;;;;;;30.34;57.34;159187.91;5088439;28;20440;-89
2023/08/21 10:15:02;;;;;;;8.20;6.53;;;;;;;30.44;56.03;159214.22;5091402;28;20445;-89
2023/08/21 10:17:29;;;;;;;8.17;7.43;;;;;;;30.65;56.71;159269.34;5040366;28;20452;-90
2023/08/21 10:19:56;;;;;;;9.27;8.00;;;;;;;30.66;56.87;159273.28;5089914;28;20982;-90
2023/08/21 10:22:40;;;;;;;8.73;6.70;;;;;;;30.58;54.35;159251.00;5089300;28;20552;-90
2023/08/21 10:25:15;;;;;;;8.80;8.10;;;;;;;30.77;56.61;159300.84;5057044;28;20959;-90
2023/08/21 10:27:43;;;;;;;9.30;8.40;;;;;;;30.98;55.74;159354.78;5042854;28;20476;-90
2023/08/21 10:30:15;;;;;;;9.13;8.27;;;;;;;31.00;56.23;159360.03;5078051;28;20528;-89
2023/08/21 10:32:45;;;;;;;9.10;8.20;;;;;;;31.18;55.60;159408.63;5074685;28;20478;-89
2023/08/21 10:35:15;;;;;;;8.50;7.80;;;;;;;31.28;55.46;159434.88;5063317;28;20457;-89
2023/08/21 10:38:06;;;;;;;8.50;7.80;;;;;;;31.15;55.60;159399.41;5081208;28;20934;-89
2023/08/21 10:40:33;;;;;;;9.50;8.70;;;;;;;31.01;56.30;159362.63;5094582;28;20460;-89
2023/08/21 10:43:02;;;;;;;9.77;8.83;;;;;;;31.03;56.14;159367.91;5059340;28;20453;-90
2023/08/21 10:45:29;;;;;;;9.27;8.33;;;;;;;30.77;56.63;159300.84;5055299;28;20454;-89
2023/08/21 10:47:57;;;;;;;9.93;9.13;;;;;;;30.67;56.82;159275.91;5057966;28;20474;-90
2023/08/21 10:50:24;;;;;;;8.70;7.90;;;;;;;30.80;56.98;159307.41;5076321;28;20468;-90
2023/08/21 10:52:52;;;;;;;8.90;8.07;;;;;;;31.02;56.30;159365.25;5057089;28;20474;-90
2023/08/21 10:55:20;;;;;;;9.20;8.30;;;;;;;30.92;55.71;159340.31;5090047;28;20446;-90
2023/08/21 10:57:47;;;;;;;9.67;8.73;;;;;;;30.88;55.81;159329.75;5094005;28;20500;-90
2023/08/21 11:00:17;;;;;;;10.63;8.87;;;;;;;31.02;55.54;159366.59;5091037;28;20461;-90
2023/08/21 11:02:45;;;;;;;9.70;7.73;;;;;;;31.14;54.93;159396.75;5090975;28;21007;-89
2023/08/21 11:05:13;;;;;;;8.90;8.20;;;;;;;31.00;55.02;159361.34;5089213;28;21262;-89
2023/08/21 11:07:43;;;;;;;9.00;8.20;;;;;;;30.97;55.46;159352.13;5092682;28;20892;-90
2023/08/21 11:10:13;;;;;;;8.87;8.07;;;;;;;31.04;55.73;159370.50;5063928;28;20450;-90
2023/08/21 11:12:39;;;;;;;9.00;8.23;;;;;;;31.10;55.40;159387.59;5088764;28;20442;-90
2023/08/21 11:15:07;;;;;;;9.30;8.50;;;;;;;31.24;55.80;159424.34;5091258;28;20461;-89
2023/08/21 11:17:35;;;;;;;10.70;8.77;;;;;;;31.43;55.19;159471.66;5092032;28;20537;-90
2023/08/21 11:20:04;;;;;;;9.13;8.00;;;;;;;31.38;55.08;159458.50;5090080;28;20583;-90
2023/08/21 11:22:33;;;;;;;8.80;7.97;;;;;;;31.21;54.91;159416.50;5089136;28;20451;-90
2023/08/21 11:24:59;;;;;;;9.13;8.40;;;;;;;31.12;54.72;159391.53;5057425;28;20488;-91
2023/08/21 11:27:26;;;;;;;9.77;8.83;;;;;;;30.98;56.16;159356.06;5089002;28;20973;-90